createdAt,value
2022-12-17T00:00:31.069Z,22.06
2022-12-17T00:03:19.940Z,22.04
2022-12-17T00:06:05.104Z,22.01
2022-12-17T00:08:49.879Z,21.97
2022-12-17T00:11:34.710Z,21.94
2022-12-17T00:14:19.691Z,21.89
2022-12-17T00:17:21.308Z,21.85
2022-12-17T00:20:06.249Z,21.80
2022-12-17T00:22:51.389Z,21.77
2022-12-17T00:25:56.001Z,21.73
2022-12-17T00:28:41.019Z,21.71
2022-12-17T00:31:26.201Z,21.67
2022-12-17T00:34:11.161Z,21.69
2022-12-17T00:36:56.082Z,21.68
2022-12-17T00:39:40.841Z,21.64
2022-12-17T00:42:26.342Z,21.62
2022-12-17T00:45:11.440Z,21.59
2022-12-17T00:47:56.945Z,21.56
2022-12-17T00:50:41.625Z,21.54
2022-12-17T00:53:27.434Z,21.50
2022-12-17T00:56:12.402Z,21.43
2022-12-17T00:58:57.191Z,21.40
2022-12-17T01:01:42.258Z,21.37
2022-12-17T01:04:27.338Z,21.37
2022-12-17T01:07:12.161Z,21.36
2022-12-17T01:09:57.240Z,21.34
2022-12-17T01:12:41.990Z,21.30
2022-12-17T01:15:27.508Z,21.27
2022-12-17T01:18:12.309Z,21.23
2022-12-17T01:20:57.137Z,21.21
2022-12-17T01:23:41.879Z,21.18
2022-12-17T01:26:26.650Z,21.14
2022-12-17T01:29:12.150Z,21.10
2022-12-17T01:31:57.319Z,21.09
2022-12-17T01:34:42.265Z,21.12
2022-12-17T01:37:26.880Z,21.11
2022-12-17T01:40:12.217Z,21.09
2022-12-17T01:42:58.980Z,21.06
2022-12-17T01:45:44.024Z,21.04
2022-12-17T01:48:32.253Z,21.01
2022-12-17T01:51:17.132Z,20.96
2022-12-17T01:54:11.110Z,20.92
2022-12-17T01:56:57.901Z,20.88
2022-12-17T01:59:47.613Z,20.86
2022-12-17T02:02:32.957Z,20.84
2022-12-17T02:05:18.057Z,20.84
2022-12-17T02:08:37.066Z,20.84
2022-12-17T02:11:24.187Z,20.80
2022-12-17T02:14:16.776Z,20.79
2022-12-17T02:17:05.243Z,20.74
2022-12-17T02:20:20.248Z,20.73
2022-12-17T02:23:16.040Z,20.68
2022-12-17T02:26:32.141Z,20.66
2022-12-17T02:29:17.122Z,20.61
2022-12-17T02:32:02.801Z,20.62
2022-12-17T02:34:47.799Z,20.63
2022-12-17T02:37:32.722Z,20.65
2022-12-17T02:40:17.768Z,20.63
2022-12-17T02:43:03.085Z,20.63
2022-12-17T02:45:47.931Z,20.60
2022-12-17T02:48:33.164Z,20.58
2022-12-17T02:51:18.123Z,20.56
2022-12-17T02:54:03.697Z,20.54
2022-12-17T02:56:49.070Z,20.52
2022-12-17T02:59:33.783Z,20.50
2022-12-17T03:02:18.703Z,20.49
2022-12-17T03:05:21.455Z,20.50
2022-12-17T03:08:08.864Z,20.49
2022-12-17T03:10:53.988Z,20.45
2022-12-17T03:13:46.382Z,20.45
2022-12-17T03:16:37.441Z,20.44
2022-12-17T03:19:23.242Z,20.42
2022-12-17T03:22:07.972Z,20.43
2022-12-17T03:24:52.809Z,20.39
2022-12-17T03:27:37.554Z,20.37
2022-12-17T03:30:23.034Z,20.37
2022-12-17T03:33:07.749Z,20.38
2022-12-17T03:35:52.691Z,20.39
2022-12-17T03:38:37.373Z,20.37
2022-12-17T03:41:22.422Z,20.39
2022-12-17T03:44:07.210Z,20.37
2022-12-17T03:46:51.985Z,20.35
2022-12-17T03:49:36.845Z,20.31
2022-12-17T03:52:22.194Z,20.30
2022-12-17T03:55:07.104Z,20.28
2022-12-17T03:57:52.202Z,20.28
2022-12-17T04:00:37.444Z,20.28
2022-12-17T04:03:22.775Z,20.28
2022-12-17T04:06:07.699Z,20.25
2022-12-17T04:08:52.504Z,20.25
2022-12-17T04:11:37.554Z,20.22
2022-12-17T04:14:22.934Z,20.19
2022-12-17T04:17:07.679Z,20.16
2022-12-17T04:19:52.555Z,20.13
2022-12-17T04:22:37.372Z,20.12
2022-12-17T04:25:22.688Z,20.08
2022-12-17T04:28:07.543Z,20.06
2022-12-17T04:30:52.310Z,20.03
2022-12-17T04:33:37.709Z,20.00
2022-12-17T04:36:22.605Z,19.98
2022-12-17T04:39:07.369Z,19.96
2022-12-17T04:41:52.170Z,19.97
2022-12-17T04:44:36.846Z,20.01
2022-12-17T04:47:21.647Z,20.03
2022-12-17T04:50:06.491Z,20.03
2022-12-17T04:53:11.021Z,20.04
2022-12-17T04:55:56.109Z,20.06
2022-12-17T04:58:54.567Z,20.06
2022-12-17T05:01:39.328Z,20.04
2022-12-17T05:04:24.615Z,20.08
2022-12-17T05:07:09.295Z,20.07
2022-12-17T05:09:54.432Z,20.04
2022-12-17T05:12:39.279Z,20.05
2022-12-17T05:15:25.100Z,20.04
2022-12-17T05:18:20.573Z,20.02
2022-12-17T05:21:05.266Z,19.98
2022-12-17T05:23:50.001Z,19.96
2022-12-17T05:26:41.468Z,19.94
2022-12-17T05:29:26.437Z,19.90
2022-12-17T05:32:11.142Z,19.88
2022-12-17T05:34:57.140Z,19.87
2022-12-17T05:37:42.274Z,19.84
2022-12-17T05:40:27.763Z,19.83
2022-12-17T05:43:14.093Z,19.83
2022-12-17T05:45:59.914Z,19.84
2022-12-17T05:52:31.660Z,19.85
2022-12-17T05:55:16.448Z,19.87
2022-12-17T05:58:01.206Z,19.88
2022-12-17T06:00:45.986Z,19.89
2022-12-17T06:03:30.869Z,19.91
2022-12-17T06:06:26.536Z,19.92
2022-12-17T06:09:11.250Z,19.93
2022-12-17T06:12:00.998Z,19.95
2022-12-17T06:14:47.863Z,19.97
2022-12-17T06:17:32.578Z,20.00
2022-12-17T06:20:17.365Z,19.99
2022-12-17T06:23:02.165Z,20.04
2022-12-17T06:26:00.856Z,20.02
2022-12-17T06:28:45.707Z,20.00
2022-12-17T06:31:30.414Z,19.97
2022-12-17T06:34:15.686Z,19.93
2022-12-17T06:37:00.463Z,19.91
2022-12-17T06:39:56.027Z,19.90
2022-12-17T06:42:40.724Z,19.93
2022-12-17T06:45:26.001Z,19.95
2022-12-17T06:48:11.180Z,19.95
2022-12-17T06:50:55.977Z,19.97
2022-12-17T06:53:40.708Z,19.96
2022-12-17T06:56:25.403Z,19.96
2022-12-17T06:59:10.220Z,19.99
2022-12-17T07:01:55.003Z,20.02
2022-12-17T07:04:39.848Z,20.02
2022-12-17T07:07:24.647Z,20.04
2022-12-17T07:10:23.913Z,20.03
2022-12-17T07:13:08.736Z,20.05
2022-12-17T07:15:53.601Z,20.04
2022-12-17T07:18:38.343Z,20.07
2022-12-17T07:21:23.125Z,20.07
2022-12-17T07:24:07.860Z,20.06
2022-12-17T07:26:52.690Z,20.02
2022-12-17T07:29:37.432Z,20.04
2022-12-17T07:32:22.673Z,20.00
2022-12-17T07:35:07.505Z,19.97
2022-12-17T07:37:52.278Z,19.94
2022-12-17T07:40:37.495Z,19.90
2022-12-17T07:43:29.351Z,19.87
2022-12-17T07:46:14.051Z,19.84
2022-12-17T07:48:58.857Z,19.86
2022-12-17T07:51:43.525Z,19.88
2022-12-17T07:54:28.237Z,19.91
2022-12-17T07:57:12.805Z,19.90
2022-12-17T07:59:57.636Z,19.89
2022-12-17T08:02:42.565Z,19.90
2022-12-17T08:05:27.992Z,20.01
2022-12-17T08:08:29.400Z,20.02
2022-12-17T08:11:14.615Z,20.11
2022-12-17T08:13:59.571Z,20.27
2022-12-17T08:16:44.577Z,20.40
2022-12-17T08:19:29.423Z,20.58
2022-12-17T08:22:14.512Z,20.66
2022-12-17T08:24:59.675Z,20.74
2022-12-17T08:27:44.481Z,20.84
2022-12-17T08:30:30.332Z,20.89
2022-12-17T08:33:21.446Z,20.90
2022-12-17T08:36:12.823Z,20.91
2022-12-17T08:38:57.689Z,20.97
2022-12-17T08:41:43.021Z,21.12
2022-12-17T08:44:27.845Z,21.18
2022-12-17T08:47:12.869Z,21.16
2022-12-17T08:49:57.688Z,21.11
2022-12-17T08:52:42.545Z,21.16
2022-12-17T08:55:27.859Z,21.27
2022-12-17T08:58:13.731Z,21.33
2022-12-17T09:00:59.033Z,21.37
2022-12-17T09:03:44.534Z,21.43
2022-12-17T09:06:33.367Z,21.37
2022-12-17T09:09:20.945Z,21.35
2022-12-17T09:12:06.041Z,21.35
2022-12-17T09:14:51.134Z,21.35
2022-12-17T09:17:36.111Z,21.27
2022-12-17T09:20:26.189Z,21.15
2022-12-17T09:23:13.912Z,21.19
2022-12-17T09:25:58.603Z,21.43
2022-12-17T09:28:43.810Z,21.49
2022-12-17T09:31:32.431Z,21.56
2022-12-17T09:34:22.015Z,21.47
2022-12-17T09:37:07.439Z,21.42
2022-12-17T09:39:52.679Z,21.57
2022-12-17T09:43:00.417Z,21.49
2022-12-17T09:46:09.679Z,21.39
2022-12-17T09:49:14.405Z,21.28
2022-12-17T09:51:59.393Z,21.32
2022-12-17T09:55:00.773Z,21.18
2022-12-17T09:57:55.180Z,21.26
2022-12-17T10:00:44.897Z,21.34
2022-12-17T10:03:40.399Z,21.37
2022-12-17T10:06:30.488Z,21.27
2022-12-17T10:09:21.733Z,21.14
2022-12-17T10:12:06.846Z,21.12
2022-12-17T10:14:53.515Z,21.05
2022-12-17T10:17:39.994Z,21.01
2022-12-17T10:20:55.529Z,20.90
2022-12-17T10:23:47.630Z,20.87
2022-12-17T10:26:51.500Z,20.80
2022-12-17T10:29:47.826Z,20.79
2022-12-17T10:32:33.564Z,20.82
2022-12-17T10:35:19.059Z,20.80
2022-12-17T10:38:04.055Z,20.81
2022-12-17T10:40:51.296Z,20.84
2022-12-17T10:43:57.244Z,20.82
2022-12-17T10:46:47.405Z,20.87
2022-12-17T10:49:32.757Z,20.89
2022-12-17T10:52:18.903Z,20.91
2022-12-17T10:55:16.074Z,21.11
2022-12-17T10:58:01.145Z,21.07
2022-12-17T11:00:50.456Z,20.96
2022-12-17T11:03:52.699Z,21.06
2022-12-17T11:06:48.624Z,21.17
2022-12-17T11:09:56.332Z,21.11
2022-12-17T11:13:04.445Z,21.09
2022-12-17T11:16:02.279Z,21.18
2022-12-17T11:18:56.555Z,21.21
2022-12-17T11:21:49.948Z,21.19
2022-12-17T11:24:51.006Z,21.25
2022-12-17T11:27:38.521Z,21.07
2022-12-17T11:30:32.961Z,21.01
2022-12-17T11:33:26.948Z,20.68
2022-12-17T11:36:25.843Z,20.53
2022-12-17T11:39:23.643Z,20.52
2022-12-17T11:42:33.329Z,20.64
2022-12-17T11:45:22.931Z,20.71
2022-12-17T11:48:42.821Z,20.67
2022-12-17T11:51:36.637Z,20.55
2022-12-17T11:54:30.912Z,19.27
2022-12-17T11:57:34.473Z,15.68
2022-12-17T12:00:34.810Z,14.24
2022-12-17T12:03:46.414Z,15.65
2022-12-17T12:06:36.425Z,15.50
2022-12-17T12:09:30.787Z,14.53
2022-12-17T12:12:40.847Z,16.55
2022-12-17T12:15:29.887Z,18.18
2022-12-17T12:18:29.849Z,18.78
2022-12-17T12:21:50.944Z,19.25
2022-12-17T12:24:36.010Z,19.75
2022-12-17T12:27:23.996Z,20.03
2022-12-17T12:30:20.852Z,20.64
2022-12-17T12:33:21.414Z,21.08
2022-12-17T12:36:06.418Z,21.19
2022-12-17T12:38:54.697Z,21.34
2022-12-17T12:41:47.950Z,21.52
2022-12-17T12:44:58.349Z,21.66
2022-12-17T12:48:13.216Z,21.69
2022-12-17T12:51:13.005Z,21.81
2022-12-17T12:53:58.074Z,21.88
2022-12-17T12:56:54.577Z,21.93
2022-12-17T12:59:45.200Z,21.91
2022-12-17T13:02:39.677Z,22.01
2022-12-17T13:05:35.928Z,22.00
2022-12-17T13:08:08.257Z,22.05
2022-12-17T13:10:35.484Z,22.08
2022-12-17T13:13:30.804Z,22.17
2022-12-17T13:16:22.103Z,22.21
2022-12-17T13:18:48.637Z,22.19
2022-12-17T13:21:14.945Z,22.29
2022-12-17T13:23:41.408Z,22.25
2022-12-17T13:26:23.607Z,22.31
2022-12-17T13:28:55.820Z,22.36
2022-12-17T13:31:26.470Z,22.40
2022-12-17T13:34:14.036Z,22.37
2022-12-17T13:37:03.396Z,22.39
2022-12-17T13:39:46.064Z,22.22
2022-12-17T13:42:27.574Z,22.20
2022-12-17T13:44:54.052Z,22.26
2022-12-17T13:47:25.775Z,22.22
2022-12-17T13:50:24.415Z,22.26
2022-12-17T13:52:39.825Z,22.22
2022-12-17T13:55:11.038Z,22.13
2022-12-17T13:57:37.755Z,22.10
2022-12-17T14:00:04.715Z,22.11
2022-12-17T14:02:33.102Z,22.07
2022-12-17T14:05:07.249Z,22.06
2022-12-17T14:07:35.125Z,22.04
2022-12-17T14:10:02.358Z,22.03
2022-12-17T14:12:29.971Z,21.99
2022-12-17T14:14:57.782Z,21.97
2022-12-17T14:17:29.295Z,21.99
2022-12-17T14:19:59.681Z,21.95
2022-12-17T14:22:36.124Z,21.94
2022-12-17T14:25:02.860Z,21.95
2022-12-17T14:27:34.200Z,21.98
2022-12-17T14:30:00.874Z,21.95
2022-12-17T14:32:32.513Z,21.89
2022-12-17T14:35:01.041Z,21.90
2022-12-17T14:37:29.735Z,21.90
2022-12-17T14:40:00.543Z,21.88
2022-12-17T14:42:29.133Z,21.90
2022-12-17T14:44:58.533Z,21.87
2022-12-17T14:47:35.103Z,21.81
2022-12-17T14:50:07.470Z,21.84
2022-12-17T14:52:44.392Z,21.81
2022-12-17T14:55:36.765Z,21.81
2022-12-17T14:58:22.119Z,21.81
2022-12-17T15:00:52.824Z,21.77
2022-12-17T15:03:29.877Z,21.72
2022-12-17T15:06:02.164Z,21.68
2022-12-17T15:08:42.183Z,21.39
2022-12-17T15:11:10.876Z,21.66
2022-12-17T15:13:37.399Z,21.79
2022-12-17T15:16:04.045Z,21.98
2022-12-17T15:18:30.516Z,22.12
2022-12-17T15:20:56.951Z,22.27
2022-12-17T15:23:23.711Z,22.32
2022-12-17T15:25:50.894Z,22.39
2022-12-17T15:28:18.134Z,22.40
2022-12-17T15:30:44.971Z,22.38
2022-12-17T15:33:11.500Z,22.38
2022-12-17T15:35:38.131Z,22.37
2022-12-17T15:38:04.849Z,22.50
2022-12-17T15:40:31.306Z,22.69
2022-12-17T15:43:13.055Z,22.79
2022-12-17T15:45:49.478Z,22.90
2022-12-17T15:48:20.508Z,22.78
2022-12-17T15:50:47.426Z,22.76
2022-12-17T15:53:14.003Z,22.79
2022-12-17T15:55:40.445Z,22.86
2022-12-17T15:58:07.270Z,22.86
2022-12-17T16:00:33.753Z,22.90
2022-12-17T16:03:00.409Z,22.89
2022-12-17T16:05:27.350Z,22.91
2022-12-17T16:07:53.873Z,22.94
2022-12-17T16:10:20.338Z,22.99
2022-12-17T16:12:46.791Z,23.00
2022-12-17T16:15:13.455Z,23.00
2022-12-17T16:17:39.969Z,22.98
2022-12-17T16:20:07.057Z,22.96
2022-12-17T16:22:33.505Z,22.94
2022-12-17T16:24:59.953Z,23.00
2022-12-17T16:27:26.486Z,23.09
2022-12-17T16:29:52.997Z,23.21
2022-12-17T16:32:19.517Z,23.25
2022-12-17T16:37:13.356Z,23.33
2022-12-17T16:39:39.810Z,23.36
2022-12-17T16:42:06.607Z,23.32
2022-12-17T16:44:33.076Z,23.35
2022-12-17T16:46:59.859Z,23.41
2022-12-17T16:49:26.515Z,23.36
2022-12-17T16:51:53.417Z,23.35
2022-12-17T16:54:22.713Z,23.29
2022-12-17T16:56:50.309Z,23.32
2022-12-17T16:59:16.866Z,23.47
2022-12-17T17:01:45.230Z,23.34
2022-12-17T17:04:11.953Z,23.23
2022-12-17T17:06:45.421Z,23.21
2022-12-17T17:09:12.201Z,23.15
2022-12-17T17:11:38.692Z,23.13
2022-12-17T17:14:05.724Z,23.09
2022-12-17T17:16:34.052Z,23.20
2022-12-17T17:19:01.080Z,23.24
2022-12-17T17:21:54.027Z,23.18
2022-12-17T17:24:22.100Z,23.16
2022-12-17T17:26:49.310Z,23.13
2022-12-17T17:29:16.016Z,23.14
2022-12-17T17:34:28.895Z,23.16
2022-12-17T17:36:55.339Z,23.18
2022-12-17T17:39:21.840Z,23.16
2022-12-17T17:41:48.319Z,23.14
2022-12-17T17:44:48.872Z,23.18
2022-12-17T17:47:15.293Z,23.22
2022-12-17T17:49:41.754Z,23.35
2022-12-17T17:52:09.993Z,23.38
2022-12-17T17:54:37.293Z,23.43
2022-12-17T17:57:03.808Z,23.47
2022-12-17T17:59:33.755Z,23.46
2022-12-17T18:02:01.120Z,23.43
2022-12-17T18:04:27.915Z,23.52
2022-12-17T18:09:40.790Z,23.59
2022-12-17T18:12:25.764Z,23.52
2022-12-17T18:17:39.173Z,23.48
2022-12-17T18:20:06.204Z,23.50
2022-12-17T18:22:32.603Z,23.57
2022-12-17T18:24:59.116Z,23.56
2022-12-17T18:27:25.534Z,23.61
2022-12-17T18:29:52.006Z,23.58
2022-12-17T18:32:18.458Z,23.49
2022-12-17T18:34:44.921Z,23.41
2022-12-17T18:37:11.347Z,23.47
2022-12-17T18:39:38.365Z,23.62
2022-12-17T18:42:23.412Z,23.63
2022-12-17T18:44:49.840Z,23.62
2022-12-17T18:47:16.382Z,23.56
2022-12-17T18:49:43.021Z,23.54
2022-12-17T18:52:16.283Z,23.47
2022-12-17T18:54:43.323Z,23.44
2022-12-17T18:57:09.742Z,23.38
2022-12-17T18:59:36.208Z,23.28
2022-12-17T19:02:02.736Z,23.30
2022-12-17T19:04:29.271Z,23.37
2022-12-17T19:06:55.723Z,23.37
2022-12-17T19:09:23.826Z,23.35
2022-12-17T19:11:50.484Z,23.34
2022-12-17T19:14:17.824Z,23.33
2022-12-17T19:16:44.489Z,23.26
2022-12-17T19:19:11.109Z,23.30
2022-12-17T19:21:37.540Z,23.27
2022-12-17T19:24:05.612Z,23.20
2022-12-17T19:26:32.135Z,23.14
2022-12-17T19:28:58.782Z,23.12
2022-12-17T19:31:26.621Z,23.17
2022-12-17T19:34:00.719Z,23.35
2022-12-17T19:36:28.587Z,23.39
2022-12-17T19:38:56.744Z,23.34
2022-12-17T19:41:23.584Z,23.31
2022-12-17T19:43:55.418Z,23.19
2022-12-17T19:46:21.893Z,23.10
2022-12-17T19:48:49.077Z,23.10
2022-12-17T19:51:17.181Z,23.04
2022-12-17T19:53:44.001Z,23.05
2022-12-17T19:56:29.955Z,23.07
2022-12-17T19:58:57.820Z,23.05
2022-12-17T20:01:31.794Z,23.03
2022-12-17T20:03:58.447Z,23.01
2022-12-17T20:06:27.098Z,23.01
2022-12-17T20:08:53.536Z,22.97
2022-12-17T20:11:35.755Z,22.97
2022-12-17T20:14:21.260Z,22.97
2022-12-17T20:17:06.140Z,22.98
2022-12-17T20:19:33.230Z,22.96
2022-12-17T20:22:00.496Z,22.93
2022-12-17T20:24:31.014Z,22.90
2022-12-17T20:26:58.169Z,22.86
2022-12-17T20:29:25.216Z,22.84
2022-12-17T20:31:52.088Z,22.80
2022-12-17T20:34:18.965Z,22.81
2022-12-17T20:36:45.415Z,22.70
2022-12-17T20:39:12.041Z,22.61
2022-12-17T20:41:40.085Z,22.63
2022-12-17T20:44:08.203Z,22.57
2022-12-17T20:46:36.655Z,22.64
2022-12-17T20:49:03.777Z,22.58
2022-12-17T20:51:30.294Z,22.57
2022-12-17T20:53:57.113Z,22.54
2022-12-17T20:56:26.764Z,22.49
2022-12-17T20:58:54.357Z,22.48
2022-12-17T21:01:21.901Z,22.43
2022-12-17T21:03:49.505Z,22.54
2022-12-17T21:06:24.144Z,22.39
2022-12-17T21:08:51.473Z,22.37
2022-12-17T21:11:19.342Z,22.42
2022-12-17T21:13:45.963Z,22.51
2022-12-17T21:16:17.278Z,22.60
2022-12-17T21:18:43.789Z,22.68
2022-12-17T21:21:12.152Z,22.78
2022-12-17T21:23:38.726Z,22.86
2022-12-17T21:26:08.834Z,22.92
2022-12-17T21:28:37.583Z,22.94
2022-12-17T21:31:04.873Z,23.01
2022-12-17T21:33:31.476Z,23.08
2022-12-17T21:36:02.423Z,23.16
2022-12-17T21:38:34.511Z,23.15
2022-12-17T21:41:11.291Z,23.16
2022-12-17T21:43:38.079Z,23.16
2022-12-17T21:46:05.404Z,23.20
2022-12-17T21:48:35.510Z,23.25
2022-12-17T21:51:07.272Z,23.29
2022-12-17T21:53:34.117Z,23.31
2022-12-17T21:56:08.429Z,23.30
2022-12-17T21:58:35.282Z,23.29
2022-12-17T22:01:19.349Z,23.25
2022-12-17T22:03:46.935Z,23.26
2022-12-17T22:06:15.984Z,23.25
2022-12-17T22:08:43.041Z,23.23
2022-12-17T22:11:15.023Z,23.21
2022-12-17T22:14:13.780Z,23.25
2022-12-17T22:16:47.115Z,23.24
2022-12-17T22:19:22.152Z,23.28
2022-12-17T22:21:49.391Z,23.26
2022-12-17T22:24:20.315Z,23.23
2022-12-17T22:26:47.246Z,23.26
2022-12-17T22:29:33.848Z,23.26
2022-12-17T22:32:19.052Z,23.28
2022-12-17T22:35:37.374Z,23.23
2022-12-17T22:42:29.542Z,23.00
2022-12-17T22:44:34.917Z,22.95
2022-12-17T22:44:41.787Z,22.96
2022-12-17T22:46:26.542Z,22.91
2022-12-17T22:48:52.973Z,22.88
2022-12-17T22:51:27.862Z,22.87
2022-12-17T22:53:56.737Z,22.82
2022-12-17T22:56:56.758Z,22.85
2022-12-17T22:59:16.637Z,22.79
2022-12-17T23:01:43.198Z,22.78
2022-12-17T23:04:11.513Z,22.76
2022-12-17T23:06:37.973Z,22.70
2022-12-17T23:09:04.572Z,22.70
2022-12-17T23:11:31.384Z,22.67
2022-12-17T23:13:57.781Z,22.71
2022-12-17T23:16:24.250Z,22.75
2022-12-17T23:18:52.072Z,22.58
2022-12-17T23:21:23.802Z,22.47
2022-12-17T23:23:51.485Z,22.38
2022-12-17T23:26:23.301Z,22.37
2022-12-17T23:28:58.130Z,22.34
2022-12-17T23:31:25.172Z,22.31
2022-12-17T23:33:51.869Z,22.30
2022-12-17T23:36:21.985Z,22.25
2022-12-17T23:38:49.541Z,22.22
2022-12-17T23:41:17.088Z,22.20
2022-12-17T23:43:43.526Z,22.20
2022-12-17T23:46:10.230Z,22.18
2022-12-17T23:48:42.055Z,22.15
2022-12-17T23:51:11.388Z,22.15
2022-12-17T23:53:38.471Z,22.13
2022-12-17T23:56:09.261Z,22.12
2022-12-17T23:58:36.152Z,22.08
